Cotton Gin, Texas
Current Conditions -  °F | °C
As of 12:15 PM on Monday 26 Jan 2015 (Local Time) from KLXY Reporting Station
Clear Clear  
Wind Chill: 16°   Ceiling: Unl
Heat Index: 16°   Visibility: 10mi
Dew Point:   Wind: 7mph
Humidity: 39%   Direction: 240°WSW
Pressure: 30.21"   Gusts: NA
Location:  31.6463°N, 96.2786°W
Report Text: KLXY 261815Z AUTO 24006KT 10SM CLR 16/02 A3021 RMK AO2 T01550015
Loading
Personal Weather Stations






























Interactive Weather Map New forecast layout! Learn more

10-Day Weather Forecast

Advertisements
Track Severe Weather on mobile